createdAt,value
2023-05-20T00:36:49.032Z,14.90
2023-05-20T00:38:52.587Z,14.90
2023-05-20T00:40:55.838Z,14.80
2023-05-20T00:42:59.416Z,15.00
2023-05-20T00:45:02.928Z,15.00
2023-05-20T00:47:07.696Z,14.90
2023-05-20T00:49:11.046Z,14.90
2023-05-20T00:51:15.447Z,14.90
2023-05-20T00:53:19.920Z,14.80
2023-05-20T00:55:23.495Z,14.80
2023-05-20T00:57:26.991Z,14.80
2023-05-20T00:59:30.636Z,14.80
2023-05-20T01:01:34.226Z,14.80
2023-05-20T01:03:39.692Z,15.00
2023-05-20T01:05:46.283Z,14.80
2023-05-20T01:07:49.746Z,14.80
2023-05-20T01:09:54.522Z,15.00
2023-05-20T01:12:04.211Z,14.90
2023-05-20T01:14:10.233Z,15.00
2023-05-20T01:26:41.293Z,14.60
2023-05-20T01:28:46.185Z,14.70
2023-05-20T01:30:53.832Z,14.80
2023-05-20T01:33:02.665Z,14.70
2023-05-20T01:35:07.351Z,14.60
2023-05-20T01:37:12.903Z,14.60
2023-05-20T01:39:18.727Z,14.60
2023-05-20T01:41:23.363Z,14.50
2023-05-20T01:43:28.586Z,14.50
2023-05-20T01:45:33.363Z,14.60
2023-05-20T01:47:36.858Z,14.60
2023-05-20T01:49:40.208Z,14.60
2023-05-20T01:51:44.011Z,14.50
2023-05-20T01:53:47.330Z,14.50
2023-05-20T01:55:52.157Z,14.50
2023-05-20T01:57:55.557Z,14.70
2023-05-20T01:59:58.942Z,14.50
2023-05-20T02:02:02.336Z,14.70
2023-05-20T02:04:05.967Z,14.70
2023-05-20T02:06:09.344Z,14.80
2023-05-20T02:08:12.919Z,14.90
2023-05-20T02:10:16.411Z,14.80
2023-05-20T02:12:21.211Z,14.80
2023-05-20T02:14:24.527Z,14.90
2023-05-20T02:16:27.887Z,14.80
2023-05-20T02:18:32.740Z,14.70
2023-05-20T02:20:37.676Z,14.60
2023-05-20T02:22:41.308Z,14.60
2023-05-20T02:24:44.777Z,14.70
2023-05-20T02:26:49.599Z,14.80
2023-05-20T02:28:54.428Z,14.80
2023-05-20T02:30:57.704Z,14.80
2023-05-20T02:33:01.355Z,14.60
2023-05-20T02:35:05.102Z,14.40
2023-05-20T02:37:08.497Z,14.20
2023-05-20T02:39:12.617Z,14.00
2023-05-20T02:41:16.123Z,13.90
2023-05-20T02:43:19.424Z,13.90
2023-05-20T02:45:24.329Z,14.10
2023-05-20T02:47:28.350Z,14.10
2023-05-20T02:49:31.788Z,14.20
2023-05-20T02:51:35.223Z,14.30
2023-05-20T02:53:38.629Z,14.30
2023-05-20T02:55:42.513Z,14.10
2023-05-20T02:57:46.034Z,14.10
2023-05-20T02:59:49.502Z,14.00
2023-05-20T03:01:54.426Z,14.00
2023-05-20T03:03:57.880Z,13.90
2023-05-20T03:06:01.505Z,14.10
2023-05-20T03:08:05.849Z,14.00
2023-05-20T03:10:10.938Z,14.20
2023-05-20T03:12:14.473Z,14.40
2023-05-20T03:14:18.231Z,14.50
2023-05-20T03:16:21.868Z,14.40
2023-05-20T03:18:26.712Z,14.50
2023-05-20T03:20:30.299Z,14.50
2023-05-20T03:22:33.922Z,14.60
2023-05-20T03:24:37.365Z,14.80
2023-05-20T03:26:43.300Z,14.80
2023-05-20T03:28:46.718Z,14.60
2023-05-20T03:30:50.223Z,14.50
2023-05-20T03:32:55.414Z,14.60
2023-05-20T03:35:00.267Z,14.40
2023-05-20T03:37:03.764Z,14.60
2023-05-20T03:39:07.074Z,14.70
2023-05-20T03:41:10.575Z,14.80
2023-05-20T03:43:14.358Z,15.00
2023-05-20T03:45:17.869Z,15.00
2023-05-20T03:47:21.408Z,15.00
2023-05-20T03:49:24.812Z,15.00
2023-05-20T03:51:29.652Z,15.00
2023-05-20T03:53:33.374Z,14.90
2023-05-20T03:55:36.876Z,14.80
2023-05-20T03:57:40.687Z,14.90
2023-05-20T03:59:46.603Z,15.00
2023-05-20T04:01:50.379Z,15.00
2023-05-20T04:03:53.981Z,15.00
2023-05-20T04:05:57.307Z,14.90
2023-05-20T04:08:02.448Z,14.60
2023-05-20T04:10:07.085Z,14.70
2023-05-20T04:12:11.606Z,14.80
2023-05-20T04:14:15.390Z,15.00
2023-05-20T04:16:19.148Z,15.00
2023-05-20T04:18:22.717Z,15.20
2023-05-20T04:20:26.983Z,15.10
2023-05-20T04:22:30.270Z,15.10
2023-05-20T04:24:34.912Z,15.20
2023-05-20T04:26:38.827Z,15.20
2023-05-20T04:28:44.891Z,15.40
2023-05-20T04:30:48.502Z,15.20
2023-05-20T04:32:52.100Z,15.40
2023-05-20T04:34:56.165Z,15.50
2023-05-20T04:37:00.569Z,15.50
2023-05-20T04:39:05.203Z,15.50
2023-05-20T04:41:09.927Z,15.70
2023-05-20T04:43:15.640Z,15.70
2023-05-20T04:45:19.377Z,15.80
2023-05-20T04:47:23.084Z,16.00
2023-05-20T04:49:27.493Z,16.20
2023-05-20T04:51:30.906Z,16.40
2023-05-20T04:53:36.118Z,16.50
2023-05-20T04:55:40.134Z,16.70
2023-05-20T04:57:44.796Z,16.80
2023-05-20T04:59:48.550Z,17.00
2023-05-20T05:01:52.347Z,17.10
2023-05-20T05:03:55.818Z,17.20
2023-05-20T05:05:59.436Z,17.10
2023-05-20T05:08:03.044Z,16.90
2023-05-20T05:10:07.275Z,17.00
2023-05-20T05:12:10.543Z,16.80
2023-05-20T05:14:15.170Z,16.70
2023-05-20T05:16:18.486Z,17.00
2023-05-20T05:18:22.136Z,17.00
2023-05-20T05:20:25.514Z,17.00
2023-05-20T05:22:28.950Z,16.90
2023-05-20T05:24:32.433Z,17.10
2023-05-20T05:26:35.722Z,17.30
2023-05-20T05:28:39.160Z,17.30
2023-05-20T05:30:44.230Z,17.10
2023-05-20T05:32:47.566Z,17.20
2023-05-20T05:34:51.235Z,17.30
2023-05-20T05:36:54.842Z,17.30
2023-05-20T05:38:58.104Z,17.20
2023-05-20T05:41:01.537Z,17.10
2023-05-20T05:43:04.908Z,17.10
2023-05-20T05:45:09.731Z,17.20
2023-05-20T05:47:14.561Z,17.40
2023-05-20T05:49:17.916Z,17.70
2023-05-20T05:51:21.362Z,17.90
2023-05-20T05:53:24.863Z,18.10
2023-05-20T05:55:28.261Z,18.10
2023-05-20T05:57:31.720Z,18.20
2023-05-20T05:59:35.035Z,18.40
2023-05-20T06:01:38.728Z,18.50
2023-05-20T06:03:43.596Z,18.70
2023-05-20T06:05:47.854Z,18.30
2023-05-20T06:07:51.436Z,18.70
2023-05-20T06:09:54.860Z,19.00
2023-05-20T06:11:58.237Z,19.40
2023-05-20T06:14:02.985Z,19.30
2023-05-20T06:16:06.953Z,19.40
2023-05-20T06:18:10.349Z,19.50
2023-05-20T06:20:15.679Z,19.50
2023-05-20T06:22:19.479Z,19.20
2023-05-20T06:24:24.468Z,19.50
2023-05-20T06:26:28.127Z,19.70
2023-05-20T06:28:32.031Z,19.60
2023-05-20T06:30:35.420Z,19.50
2023-05-20T06:32:38.813Z,19.50
2023-05-20T06:34:42.377Z,19.70
2023-05-20T06:36:47.139Z,19.30
2023-05-20T06:38:50.491Z,18.90
2023-05-20T06:40:54.024Z,19.10
2023-05-20T06:42:57.402Z,19.20
2023-05-20T06:45:00.799Z,19.50
2023-05-20T06:47:04.082Z,19.70
2023-05-20T06:49:07.455Z,20.30
2023-05-20T06:51:11.080Z,20.40
2023-05-20T08:53:10.144Z,27.50
2023-05-20T08:57:20.412Z,28.30
2023-05-20T08:59:24.025Z,28.30
2023-05-20T09:01:27.593Z,27.80
2023-05-20T09:03:32.238Z,27.00
2023-05-20T09:05:36.012Z,27.00
2023-05-20T09:07:42.995Z,26.40
2023-05-20T09:09:46.378Z,26.30
2023-05-20T09:11:49.725Z,26.80
2023-05-20T09:13:53.179Z,27.00
2023-05-20T09:15:56.734Z,27.70
2023-05-20T09:18:02.372Z,28.50
2023-05-20T09:20:10.049Z,28.70
2023-05-20T09:22:13.695Z,28.90
2023-05-20T09:24:22.206Z,29.60
2023-05-20T09:26:25.548Z,29.60
2023-05-20T09:28:28.880Z,30.40
2023-05-20T09:30:34.614Z,30.20
2023-05-20T09:32:38.769Z,29.80
2023-05-20T09:34:43.438Z,28.90
2023-05-20T09:36:47.524Z,29.40
2023-05-20T09:38:54.623Z,28.90
2023-05-20T09:41:01.661Z,28.70
2023-05-20T09:43:06.368Z,28.30
2023-05-20T09:45:10.867Z,28.10
2023-05-20T09:47:14.371Z,28.20
2023-05-20T09:49:19.125Z,27.90
2023-05-20T09:51:24.752Z,27.80
2023-05-20T09:53:29.128Z,27.70
2023-05-20T09:55:33.448Z,27.20
2023-05-20T09:57:39.113Z,26.80
2023-05-20T09:59:42.823Z,25.80
2023-05-20T10:01:46.648Z,25.70
2023-05-20T10:03:50.464Z,26.20
2023-05-20T10:06:04.976Z,26.80
2023-05-20T10:08:29.341Z,26.80
2023-05-20T10:10:45.177Z,26.80
2023-05-20T10:12:57.850Z,27.80
2023-05-20T10:15:11.893Z,28.30
2023-05-20T10:17:23.774Z,28.50
2023-05-20T10:19:31.233Z,28.10
2023-05-20T10:21:35.078Z,26.70
2023-05-20T10:23:38.415Z,26.20
2023-05-20T10:25:52.076Z,26.20
2023-05-20T10:28:09.854Z,26.10
2023-05-20T10:30:20.633Z,26.30
2023-05-20T10:32:28.584Z,26.90
2023-05-20T10:34:46.808Z,27.20
2023-05-20T10:36:59.884Z,27.20
2023-05-20T10:39:05.210Z,27.10
2023-05-20T10:41:12.367Z,27.70
2023-05-20T10:43:18.788Z,28.70
2023-05-20T10:45:29.041Z,29.40
2023-05-20T10:47:32.635Z,29.60
2023-05-20T10:49:36.388Z,28.60
2023-05-20T10:51:40.116Z,28.60
2023-05-20T10:53:46.960Z,28.40
2023-05-20T10:55:52.886Z,28.30
2023-05-20T10:57:56.865Z,29.00
2023-05-20T11:00:02.233Z,29.70
2023-05-20T11:02:06.295Z,30.40
2023-05-20T11:04:09.979Z,31.00
2023-05-20T11:06:16.056Z,30.20
2023-05-20T11:08:29.226Z,30.80
2023-05-20T11:10:33.188Z,30.50
2023-05-20T11:12:37.018Z,30.00
2023-05-20T11:14:40.400Z,30.60
2023-05-20T11:16:45.450Z,30.70
2023-05-20T11:18:50.647Z,29.90
2023-05-20T11:20:54.549Z,30.00
2023-05-20T11:22:58.369Z,29.70
2023-05-20T11:25:06.378Z,30.00
2023-05-20T11:27:09.950Z,30.20
2023-05-20T11:29:13.647Z,30.20
2023-05-20T11:31:17.762Z,29.80
2023-05-20T11:33:23.080Z,29.00
2023-05-20T11:35:27.445Z,28.10
2023-05-20T11:37:31.353Z,28.60
2023-05-20T11:39:35.019Z,28.90
2023-05-20T11:41:39.150Z,29.20
2023-05-20T11:43:43.014Z,29.20
2023-05-20T11:45:48.502Z,29.50
2023-05-20T11:48:03.232Z,29.70
2023-05-20T11:50:11.520Z,30.00
2023-05-20T11:52:15.888Z,29.50
2023-05-20T11:54:19.100Z,28.60
2023-05-20T11:56:23.064Z,28.40
2023-05-20T11:58:27.884Z,28.80
2023-05-20T12:00:43.064Z,28.40
2023-05-20T12:02:54.190Z,28.90
2023-05-20T12:04:58.308Z,28.80
2023-05-20T12:07:04.210Z,28.10
2023-05-20T12:09:08.920Z,28.40
2023-05-20T12:11:12.433Z,28.10
2023-05-20T12:13:15.972Z,28.60
2023-05-20T12:15:19.235Z,29.00
2023-05-20T12:17:22.578Z,29.10
2023-05-20T12:19:25.916Z,29.00
2023-05-20T12:21:31.301Z,28.50
2023-05-20T12:23:36.296Z,28.20
2023-05-20T12:25:40.246Z,28.20
2023-05-20T12:27:48.359Z,28.20
2023-05-20T12:29:51.639Z,28.90
2023-05-20T12:31:55.464Z,28.60
2023-05-20T12:33:58.825Z,28.10
2023-05-20T12:36:02.577Z,28.30
2023-05-20T12:38:06.129Z,28.50
2023-05-20T12:40:13.049Z,27.90
2023-05-20T12:42:16.574Z,26.90
2023-05-20T12:44:20.013Z,26.50
2023-05-20T12:46:23.828Z,26.40
2023-05-20T12:48:27.338Z,26.80
2023-05-20T12:50:30.781Z,27.10
2023-05-20T12:52:34.151Z,27.30
2023-05-20T12:54:37.461Z,27.30
2023-05-20T12:56:42.570Z,27.30
2023-05-20T12:58:46.085Z,27.10
2023-05-20T13:00:49.477Z,27.50
2023-05-20T13:02:55.084Z,28.10
2023-05-20T13:04:58.501Z,28.20
2023-05-20T13:07:01.867Z,28.30
2023-05-20T13:09:05.795Z,28.20
2023-05-20T13:11:09.289Z,28.00
2023-05-20T13:13:21.306Z,27.80
2023-05-20T13:15:24.895Z,27.40
2023-05-20T13:17:29.035Z,27.70
2023-05-20T13:19:32.803Z,27.40
2023-05-20T13:21:36.596Z,27.00
2023-05-20T13:23:41.814Z,27.30
2023-05-20T13:25:45.543Z,27.60
2023-05-20T13:27:48.838Z,27.60
2023-05-20T13:29:53.954Z,27.50
2023-05-20T13:31:58.786Z,27.60
2023-05-20T13:34:04.218Z,27.60
2023-05-20T13:36:08.113Z,27.10
2023-05-20T13:38:11.410Z,27.50
2023-05-20T13:40:15.428Z,28.00
2023-05-20T13:42:19.119Z,28.50
2023-05-20T13:44:22.756Z,27.90
2023-05-20T13:46:27.542Z,27.00
2023-05-20T13:48:30.882Z,26.20
2023-05-20T13:50:34.360Z,25.60
2023-05-20T13:52:37.800Z,25.20
2023-05-20T13:54:43.068Z,25.20
2023-05-20T13:56:46.346Z,24.90
2023-05-20T13:58:49.631Z,24.50
2023-05-20T14:00:53.888Z,24.20
2023-05-20T14:03:02.922Z,24.10
2023-05-20T14:05:07.371Z,24.10
2023-05-20T14:07:11.405Z,24.00
2023-05-20T14:09:15.514Z,23.70
2023-05-20T14:11:18.900Z,23.70
2023-05-20T14:13:22.647Z,23.70
2023-05-20T14:15:26.084Z,23.70
2023-05-20T14:17:29.796Z,24.10
2023-05-20T14:19:34.564Z,24.10
2023-05-20T14:21:37.945Z,24.30
2023-05-20T14:23:44.685Z,24.40
2023-05-20T14:25:47.977Z,24.60
2023-05-20T14:27:51.569Z,25.10
2023-05-20T14:29:55.060Z,25.40
2023-05-20T14:31:58.434Z,25.60
2023-05-20T14:34:01.750Z,25.50
2023-05-20T14:36:06.961Z,25.30
2023-05-20T14:38:10.276Z,24.90
2023-05-20T14:40:14.294Z,24.80
2023-05-20T14:42:17.846Z,25.00
2023-05-20T14:44:21.168Z,25.10
2023-05-20T14:46:24.822Z,25.10
2023-05-20T14:48:28.164Z,25.40
2023-05-20T14:50:31.664Z,25.20
2023-05-20T14:52:36.681Z,25.00
2023-05-20T14:54:40.049Z,25.20
2023-05-20T14:56:43.990Z,24.70
2023-05-20T14:58:47.282Z,24.40
2023-05-20T15:00:50.570Z,24.60
2023-05-20T15:02:54.198Z,24.80
2023-05-20T15:04:57.532Z,25.00
2023-05-20T15:07:00.937Z,25.10
2023-05-20T15:09:07.504Z,25.10
2023-05-20T15:11:11.211Z,24.70
2023-05-20T15:13:14.495Z,24.30
2023-05-20T15:15:17.886Z,24.10
2023-05-20T15:17:21.835Z,24.10
2023-05-20T15:19:25.399Z,24.20
2023-05-20T15:21:28.775Z,23.80
2023-05-20T15:23:32.077Z,23.80
2023-05-20T15:25:37.337Z,23.70
2023-05-20T15:27:41.933Z,23.50
2023-05-20T15:29:45.634Z,23.40
2023-05-20T15:31:49.213Z,23.60
2023-05-20T15:33:53.112Z,23.40
2023-05-20T15:35:56.499Z,23.60
2023-05-20T15:37:59.974Z,23.80
2023-05-20T15:40:04.635Z,23.70
2023-05-20T15:42:13.771Z,23.70
2023-05-20T15:44:17.163Z,23.70
2023-05-20T15:46:20.942Z,23.50
2023-05-20T15:48:24.315Z,23.60
2023-05-20T15:50:28.250Z,23.70
2023-05-20T15:52:31.607Z,23.70
2023-05-20T15:54:35.125Z,23.90
2023-05-20T15:56:38.441Z,23.60
2023-05-20T15:58:44.017Z,23.00
2023-05-20T16:00:47.561Z,22.90
2023-05-20T16:02:51.263Z,23.00
2023-05-20T16:04:54.698Z,22.80
2023-05-20T16:06:58.044Z,22.90
2023-05-20T16:09:01.901Z,23.10
2023-05-20T16:11:06.510Z,23.00
2023-05-20T16:13:09.942Z,23.00
2023-05-20T16:15:15.041Z,22.60
2023-05-20T16:17:21.290Z,22.50
2023-05-20T16:19:25.210Z,22.60
2023-05-20T16:21:28.437Z,22.50
2023-05-20T16:23:31.718Z,22.80
2023-05-20T16:25:35.513Z,22.90
2023-05-20T16:27:38.901Z,23.00
2023-05-20T16:29:42.187Z,23.00
2023-05-20T16:31:47.671Z,23.00
2023-05-20T16:33:50.944Z,22.90
2023-05-20T16:35:56.024Z,22.90
2023-05-20T16:37:59.476Z,22.70
2023-05-20T16:40:03.877Z,22.50
2023-05-20T16:42:09.033Z,22.00
2023-05-20T16:44:12.471Z,21.30
2023-05-20T16:46:18.841Z,21.20
2023-05-20T16:48:24.192Z,21.10
2023-05-20T16:50:27.517Z,21.20
2023-05-20T16:52:30.912Z,21.20
2023-05-20T16:54:36.418Z,21.30
2023-05-20T16:56:39.730Z,21.30
2023-05-20T16:58:43.050Z,21.40
2023-05-20T17:00:46.401Z,21.30
2023-05-20T17:02:49.826Z,21.40
2023-05-20T17:04:54.656Z,21.20
2023-05-20T17:06:58.025Z,20.70
2023-05-20T17:09:02.877Z,20.50
2023-05-20T17:11:06.235Z,20.30
2023-05-20T17:13:09.441Z,20.10
2023-05-20T17:15:12.951Z,19.80
2023-05-20T17:17:16.539Z,19.60
2023-05-20T17:19:19.817Z,19.30
2023-05-20T17:21:24.571Z,19.20
2023-05-20T17:23:27.775Z,19.00
2023-05-20T17:25:31.117Z,18.90
2023-05-20T17:27:34.504Z,18.80
2023-05-20T17:29:37.824Z,18.60
2023-05-20T17:31:41.199Z,18.70
2023-05-20T17:33:44.597Z,18.70
2023-05-20T17:35:48.256Z,18.60
2023-05-20T17:37:53.517Z,18.50
2023-05-20T17:39:56.900Z,18.60
2023-05-20T17:42:00.511Z,18.60
2023-05-20T17:44:03.924Z,18.60
2023-05-20T17:46:07.313Z,18.50
2023-05-20T17:48:11.733Z,18.10
2023-05-20T17:50:16.836Z,17.90
2023-05-20T17:52:20.256Z,17.90
2023-05-20T17:54:24.882Z,17.60
2023-05-20T17:56:28.479Z,17.50
2023-05-20T17:58:34.031Z,17.60
2023-05-20T18:00:42.402Z,17.70
2023-05-20T18:02:48.386Z,18.00
2023-05-20T18:04:51.681Z,18.20
2023-05-20T18:06:55.399Z,18.30
2023-05-20T18:09:00.016Z,18.20
2023-05-20T18:11:05.253Z,18.40
2023-05-20T18:13:08.538Z,18.50
2023-05-20T18:15:13.974Z,18.20
2023-05-20T18:17:17.253Z,18.20
2023-05-20T18:19:20.534Z,18.20
2023-05-20T18:21:24.710Z,18.20
2023-05-20T18:23:27.986Z,18.30
2023-05-20T18:25:31.762Z,18.30
2023-05-20T18:27:36.741Z,18.20
2023-05-20T18:29:39.981Z,18.10
2023-05-20T18:31:43.788Z,18.10
2023-05-20T18:33:47.183Z,18.00
2023-05-20T18:35:51.829Z,18.00
2023-05-20T18:37:55.384Z,17.80
2023-05-20T18:39:59.144Z,18.00
2023-05-20T18:42:02.383Z,18.00
2023-05-20T18:44:07.305Z,18.00
2023-05-20T18:46:10.734Z,18.00
2023-05-20T18:48:23.118Z,17.80
2023-05-20T18:50:29.770Z,17.80
2023-05-20T18:52:33.131Z,18.00
2023-05-20T18:54:36.693Z,18.10
2023-05-20T18:56:40.066Z,18.10
2023-05-20T18:58:43.493Z,18.00
2023-05-20T19:00:48.439Z,18.00
2023-05-20T19:02:51.861Z,18.00
2023-05-20T19:04:55.481Z,18.00
2023-05-20T19:06:59.160Z,18.00
2023-05-20T19:09:02.581Z,17.80
2023-05-20T19:11:06.454Z,17.80
2023-05-20T19:13:09.846Z,17.70
2023-05-20T19:15:13.525Z,17.80
2023-05-20T19:17:20.953Z,17.80
2023-05-20T19:19:25.006Z,17.80
2023-05-20T19:21:29.557Z,17.70
2023-05-20T19:23:33.518Z,17.70
2023-05-20T19:25:37.171Z,17.60
2023-05-20T19:27:40.782Z,17.70
2023-05-20T19:29:44.169Z,17.80
2023-05-20T19:31:47.640Z,17.70
2023-05-20T19:33:52.496Z,17.80
2023-05-20T19:35:57.711Z,17.80
2023-05-20T19:38:01.360Z,17.60
2023-05-20T19:40:04.948Z,17.40
2023-05-20T19:42:08.503Z,17.40
2023-05-20T19:44:12.059Z,17.50
2023-05-20T19:46:15.871Z,17.70
2023-05-20T19:48:21.954Z,17.70
2023-05-20T19:50:26.889Z,17.60
2023-05-20T19:52:30.226Z,17.70
2023-05-20T19:54:33.525Z,17.60
2023-05-20T19:56:36.974Z,17.60
2023-05-20T19:58:40.569Z,17.50
2023-05-20T20:00:44.085Z,17.30
2023-05-20T20:02:47.389Z,17.30
2023-05-20T20:04:51.918Z,17.10
2023-05-20T20:06:56.837Z,17.00
2023-05-20T20:09:01.206Z,17.00
2023-05-20T20:11:04.621Z,16.80
2023-05-20T20:13:07.919Z,16.40
2023-05-20T20:15:12.483Z,16.40
2023-05-20T20:17:17.245Z,16.50
2023-05-20T20:19:23.142Z,16.50
2023-05-20T20:21:26.903Z,16.50
2023-05-20T20:23:31.540Z,16.50
2023-05-20T20:25:38.903Z,16.30
2023-05-20T20:27:44.206Z,16.30
2023-05-20T20:29:47.533Z,16.50
2023-05-20T20:31:51.693Z,16.30
2023-05-20T20:33:55.348Z,16.30
2023-05-20T20:35:58.833Z,16.00
2023-05-20T20:38:08.504Z,16.10
2023-05-20T20:40:14.306Z,16.20
2023-05-20T20:42:18.681Z,16.20
2023-05-20T20:44:22.521Z,16.00
2023-05-20T20:46:27.556Z,16.10
2023-05-20T20:48:30.979Z,16.00
2023-05-20T20:50:34.630Z,16.20
2023-05-20T20:52:38.653Z,16.30
2023-05-20T20:54:43.390Z,16.30
2023-05-20T20:56:48.515Z,16.20
2023-05-20T20:58:54.292Z,16.10
2023-05-20T21:00:57.751Z,16.20
2023-05-20T21:03:01.391Z,16.30
2023-05-20T21:05:05.190Z,16.20
2023-05-20T21:07:08.448Z,16.20
2023-05-20T21:09:11.836Z,16.20
2023-05-20T21:11:15.946Z,16.10
2023-05-20T21:13:20.786Z,16.10
2023-05-20T21:15:24.276Z,16.10
2023-05-20T21:17:27.570Z,16.10
2023-05-20T21:19:31.119Z,16.00
2023-05-20T21:21:34.656Z,16.00
2023-05-20T21:23:38.003Z,15.90
2023-05-20T21:25:41.229Z,15.90
2023-05-20T21:27:47.582Z,15.80
2023-05-20T21:29:52.296Z,15.80
2023-05-20T21:31:55.989Z,15.60
2023-05-20T21:33:59.291Z,15.70
2023-05-20T21:36:02.616Z,15.70
2023-05-20T21:38:05.987Z,15.80
2023-05-20T21:40:10.240Z,15.80
2023-05-20T21:42:13.601Z,15.90
2023-05-20T21:44:17.057Z,15.90
2023-05-20T21:46:21.973Z,15.90
2023-05-20T21:48:25.304Z,15.90
2023-05-20T21:50:28.574Z,15.90
2023-05-20T21:52:31.882Z,15.80
2023-05-20T21:54:35.190Z,15.80
2023-05-20T21:56:39.179Z,15.80
2023-05-20T21:58:42.549Z,16.00
2023-05-20T22:00:46.073Z,15.90
2023-05-20T22:02:51.577Z,15.80
2023-05-20T22:04:55.317Z,15.60
2023-05-20T22:06:58.604Z,15.40
2023-05-20T22:09:02.934Z,15.60
2023-05-20T22:11:07.558Z,15.30
2023-05-20T22:13:13.821Z,15.30
2023-05-20T22:15:17.395Z,15.30
2023-05-20T22:17:21.935Z,15.20
2023-05-20T22:19:27.929Z,15.20
2023-05-20T22:21:34.275Z,15.20
2023-05-20T22:23:43.162Z,15.20
2023-05-20T22:25:46.860Z,15.00
2023-05-20T22:27:50.327Z,15.00
2023-05-20T22:29:53.650Z,15.00
2023-05-20T22:31:57.177Z,15.00
2023-05-20T22:34:00.622Z,15.20
2023-05-20T22:36:05.859Z,15.20
2023-05-20T22:38:09.369Z,15.20
2023-05-20T22:40:13.241Z,15.20
2023-05-20T22:42:16.857Z,15.20
2023-05-20T22:44:20.161Z,15.30
2023-05-20T22:46:23.802Z,15.20
2023-05-20T22:48:27.151Z,15.30
2023-05-20T22:50:30.512Z,15.30
2023-05-20T22:52:36.895Z,15.20
2023-05-20T22:54:40.220Z,15.20
2023-05-20T22:56:43.791Z,15.10
2023-05-20T22:58:47.276Z,15.20
2023-05-20T23:00:50.534Z,15.10
2023-05-20T23:02:54.002Z,15.10
2023-05-20T23:04:57.528Z,14.90
2023-05-20T23:07:00.822Z,14.90
2023-05-20T23:09:06.544Z,15.00
2023-05-20T23:11:10.031Z,15.00
2023-05-20T23:13:13.269Z,14.90
2023-05-20T23:15:17.068Z,14.90
2023-05-20T23:17:20.378Z,14.90
2023-05-20T23:19:23.815Z,14.70
2023-05-20T23:21:27.357Z,14.60
2023-05-20T23:23:32.062Z,14.60
2023-05-20T23:25:37.663Z,14.50
2023-05-20T23:27:41.420Z,14.60
2023-05-20T23:29:45.039Z,14.50
2023-05-20T23:31:50.114Z,14.50
2023-05-20T23:33:54.377Z,14.50
2023-05-20T23:35:58.504Z,14.50
2023-05-20T23:38:01.950Z,14.60
2023-05-20T23:40:06.319Z,14.40
2023-05-20T23:42:11.273Z,14.40
2023-05-20T23:44:14.902Z,14.30
2023-05-20T23:46:19.348Z,14.20
2023-05-20T23:48:23.743Z,14.20
2023-05-20T23:50:27.838Z,14.30
2023-05-20T23:52:31.759Z,14.20
2023-05-20T23:54:35.388Z,14.20
2023-05-20T23:56:38.992Z,14.30
2023-05-20T23:58:43.988Z,14.40
